AirNav   Pilot Hours Calculator
 
 1632 users online  

43A Montgomery County Airport
Star, North Carolina, USA

GOING TO STAR?


FAA INFORMATION EFFECTIVE 07 NOVEMBER 2019

Location

FAA Identifier: 43A
Lat/Long: 35-23-04.7560N 079-47-24.9435W
35-23.079267N 079-47.415725W
35.3846544,-79.7902621
(estimated)
Elevation: 632.4 ft. / 193 m (estimated)
Variation: 06W (1985)
Time zone: UTC -5 (UTC -4 during Daylight Saving Time)
Zip code: 27356

Airport Operations

Airport use: Open to the public
Activation date: 07/1965
Control tower: no
ARTCC: WASHINGTON CENTER
FSS: RALEIGH FLIGHT SERVICE STATION
NOTAMs facility: RDU (NOTAM-D service available)
Attendance: UNATTENDED
Wind indicator: lighted
Segmented circle: no
Lights: ACTVT MIRL RY 03/21 AND PAPI RY 3 AND PAPI RY 21 - CTAF.
Beacon: white-green (lighted land airport)
Operates sunset to sunrise.

Airport Communications

CTAF/UNICOM: 122.8
FAYETTEVILLE APPROACH: 127.8
FAYETTEVILLE DEPARTURE: 127.8
WX AWOS-3 at HBI (17 nm N): 119.275 (336-626-7933)
WX AWOS-3 at VUJ (18 nm W): 128.175 (704-986-2097)

Nearby radio navigation aids

VOR radial/distance  VOR name  Freq  Var
SDZr319/14.2SANDHILLS VORTAC111.8003W
LIBr202/27.0LIBERTY VORTAC113.0003W

 
NDB name  Hdg/Dist  Freq  Var  ID
MACKALL331/26.127806WHFF .... ..-. ..-.

Airport Services

Parking: tiedowns
Airframe service: NONE
Powerplant service: NONE
Bottled oxygen: NONE
Bulk oxygen: NONE

Runway Information

Runway 3/21

Dimensions: 4002 x 75 ft. / 1220 x 23 m
Surface: asphalt, in excellent condition
Weight bearing capacity: 
Single wheel: 20.0
Runway edge lights: medium intensity
Gradient: NE
RUNWAY 3  RUNWAY 21
Latitude: 35-22.772160N35-23.386303N
Longitude: 079-47.563150W079-47.268632W
Elevation: 572.6 ft.632.4 ft.
Traffic pattern: leftleft
Runway heading: 027 magnetic, 021 true207 magnetic, 201 true
Displaced threshold: no460 ft.
Markings: nonprecision, in good conditionnonprecision, in good condition
Visual slope indicator: 2-light PAPI on left (3.50 degrees glide path)2-light PAPI on left (4.00 degrees glide path)
Runway end identifier lights: nono
Touchdown point: yes, no lightsyes, no lights
Obstructions: 48 ft. trees, 1455 ft. from runway, 18 ft. right of centerline, 26:1 slope to clear30 ft. pole, 449 ft. from runway, 126 ft. left of centerline, 8:1 slope to clear
APCH RATIO 20:1 TO DSPLCD THR.

Airport Ownership and Management from official FAA records

Ownership: Publicly-owned
Owner: MONTGOMERY COUNTY
PO BOX 425
TROY, NC 27371
Phone 910-576-4221
Manager: KEVIN MCNEILL
PO BOX 425
TROY, NC 27371
Phone (910) 220-1218
MGR PHONE 910-220-1218.

Airport Operational Statistics

Aircraft based on the field: 9
Single engine airplanes: 7
Multi engine airplanes: 2
    
Aircraft operations: avg 92/week *
42% military
31% transient general aviation
27% local general aviation
* for 12-month period ending 11 May 2019

Additional Remarks

DEER OCCASIONALLY ON RY.
40 FT PLINE 350-750 FT FM THLD RY 21 ACROSS & L OF CNTRLN.
20-25 FT DEPRESSION 180 FT S OF RY 03 THLD ON CNTRLN.
RY 03 HAS UPHILL GRADE.
35-40 FT DROP-OFF 80 FT W OF RY 03 CNTRLN AND 30 FT DROP-OFF 300 FT FM RY 21 THLD ON CNTRLN AND 30 FT DROP-OFF 80 FT R OF RY 21 CNTRLN.
FOR CD CTC FAYETTEVILLE APCH AT 910-484-8012.

Instrument Procedures

NOTE: All procedures below are presented as PDF files. If you need a reader for these files, you should download the free Adobe Reader.

NOT FOR NAVIGATION. Please procure official charts for flight.
FAA instrument procedures published for use from 07 November 2019 at 0901Z to 05 December 2019 at 0900Z.

 
IAPs - Instrument Approach Procedures
RNAV (GPS) RWY 03 **CHANGED**   download (170KB)
RNAV (GPS) RWY 21 **CHANGED**   download (186KB)
NOTE: Special Take-Off Minimums/Departure Procedures apply   download

Other nearby airports with instrument procedures:

KHBI - Asheboro Regional Airport (17 nm N)
KVUJ - Stanly County Airport (18 nm W)
KSOP - Moore County Airport (22 nm SE)
KSCR - Siler City Municipal Airport (24 nm NE)
KHFF - Mackall Army Airfield (25 nm SE)
 
Loc | Ops | Rwys | IFR | FBO | Links
Com | Nav | Svcs | Stats | Notes
Area around 43A (Montgomery County Airport)
 
Road maps at: MapQuest Bing Google
 
Aerial photo
WARNING: Photo may not be current or correct
Aerial photo of 43A (Montgomery County Airport)
Photo courtesy of AirNav, LLC
Photo taken 09-Aug-2010
looking South.

Do you have a better or more recent aerial photo of Montgomery County Airport that you would like to share? If so, please send us your photo.

 
Sectional chart

 
Airport distance calculator
Flying to Montgomery County Airport? Find the distance to fly.

From to 43A

Sunrise and sunset
Times for 20-Nov-2019
 Local
(UTC-5)
 Zulu
(UTC)
Morning civil twilight06:3311:33
Sunrise07:0012:00
Sunset17:0922:09
Evening civil twilight17:3722:37

Current date and time
Zulu (UTC)  20-Nov-2019 20:58:15
Local (UTC-5)  20-Nov-2019 15:58:15
 
METAR
KHBI 
17nm N 
202055Z AUTO 33008G15KT 10SM CLR 14/00 A3016 RMK AO2 T01430003
KVUJ 
18nm W 
202035Z AUTO 35007KT 10SM CLR 15/02 A3018 RMK AO2 T01500017
KSOP 
22nm SE 
201956Z AUTO VRB06KT 10SM FEW055 16/02 A3012 RMK AO2 SLP204 T01560022
KSCR 
24nm NE 
202035Z AUTO 33007KT 10SM BKN055 15/02 A3012 RMK AO2 T01500020
KAFP 
26nm SW 
202035Z AUTO 10SM 16/01 A3013 RMK AO2 T01590013
KHFF 
26nm SE 
202036Z AUTO 35007KT 10SM CLR 16/02 A3012 RMK AO2 SLP216 $
KRCZ 
30nm S 
202035Z AUTO 33005KT 10SM CLR 15/M02 A3013 RMK AO2 T01521016
TAF
KPOB 
40nm E 
201810Z 2018/2124 35012KT 9999 FEW060 QNH3009INS BECMG 2023/2024 VRB06KT 9999 FEW035 QNH3011INS BECMG 2116/2117 22009KT 9999 FEW080 SCT120 BKN250 QNH3030INS TX18/2019Z TN02/2112Z
KGSO 
44nm N 
201727Z 2018/2118 33014G21KT P6SM FEW045 FM202300 VRB04KT P6SM SCT250
KFBG 
46nm E 
201800Z 2018/2124 34012KT 9999 FEW060 QNH3008INS BECMG 2023/2024 VRB06KT 9999 FEW035 QNH3011INS BECMG 2116/2117 22009KT 9999 FEW080 SCT120 BKN250 QNH3030INS TX18/2019Z TN02/2112Z
KINT 
49nm NW 
201727Z 2018/2118 33013G21KT P6SM FEW050 FM202300 VRB04KT P6SM SCT250
NOTAMs
Click for the latest NOTAMs
NOTAMs are issued by the DoD/FAA and will open in a separate window not controlled by AirNav.

 

 
 

Would you like to see your business listed on this page?

 If your business provides an interesting product or service to pilots, flight crews, aircraft, or users of the Montgomery County Airport, you should consider listing it here.  To start the listing process, click on the button below
 
Add a business
 

Other Pages about Montgomery County Airport

Update a link
 
Copyright © AirNav, LLC. All rights reserved. Privacy Policy  Contact